Time;durP1;ratioP1;P1;durP2;ratioP2;P2;SDS_P1;SDS_P2;PMS_P1;PMS_P2;Temp;Humidity;BMP_temperature;BMP_pressure;BME280_temperature;BME280_humidity;BME280_pressure;Samples;Min_cycle;Max_cycle;Signal;HPM_P1;HPM_P2
2022/07/15 00:00:01;;;;;;;4.50;2.10;;;;;;;;;;5025245;28;20305;-81
2022/07/15 00:02:30;;;;;;;4.13;1.90;;;;;;;;;;5023281;28;21001;-82
2022/07/15 00:04:57;;;;;;;4.80;2.23;;;;;;;;;;5024884;28;20322;-80
2022/07/15 00:07:25;;;;;;;3.33;1.87;;;;;;;;;;5024376;28;20286;-80
2022/07/15 00:12:37;;;;;;;6.43;2.13;;;;;;;;;;5024164;28;20606;-80
2022/07/15 00:15:05;;;;;;;2.93;1.90;;;;;;;;;;5025668;28;20306;-80
2022/07/15 00:17:33;;;;;;;4.80;2.13;;;;;;;;;;5033407;28;20574;-80
2022/07/15 00:20:00;;;;;;;4.70;2.00;;;;;;;;;;5025962;28;20551;-80
2022/07/15 00:22:29;;;;;;;3.33;1.87;;;;;;;;;;5023129;28;20374;-80
2022/07/15 00:24:56;;;;;;;6.13;2.00;;;;;;;;;;5025752;28;20230;-80
2022/07/15 00:27:24;;;;;;;5.87;2.10;;;;;;;;;;5033148;28;20272;-80
2022/07/15 00:29:54;;;;;;;5.83;2.30;;;;;;;;;;5050465;28;20210;-80
2022/07/15 00:32:21;;;;;;;8.17;2.30;;;;;;;;;;5049206;28;20183;-79
2022/07/15 00:34:48;;;;;;;6.40;2.00;;;;;;;;;;5032694;28;20269;-80
2022/07/15 00:37:15;;;;;;;5.23;2.57;;;;;;;;;;5028555;28;20859;-81
2022/07/15 00:39:44;;;;;;;4.40;2.00;;;;;;;;;;5028342;28;20223;-81
2022/07/15 00:42:43;;;;;;;3.97;2.10;;;;;;;;;;5027550;28;20207;-81
2022/07/15 00:45:00;;;;;;;6.57;2.00;;;;;;;;;;5046378;28;20222;-81
2022/07/15 00:47:27;;;;;;;4.63;2.00;;;;;;;;;;5027084;28;20470;-81
2022/07/15 00:49:56;;;;;;;7.93;2.23;;;;;;;;;;5025804;28;20208;-81
2022/07/15 00:52:24;;;;;;;9.50;2.30;;;;;;;;;;5027742;28;20609;-81
2022/07/15 00:54:56;;;;;;;5.03;2.00;;;;;;;;;;5025122;28;20232;-81
2022/07/15 00:57:25;;;;;;;4.27;1.90;;;;;;;;;;5058927;28;20231;-81
2022/07/15 00:59:53;;;;;;;5.03;1.73;;;;;;;;;;5025192;28;20234;-81
2022/07/15 01:02:21;;;;;;;5.10;2.13;;;;;;;;;;5022862;28;20287;-80
2022/07/15 01:04:56;;;;;;;4.63;2.43;;;;;;;;;;5021560;28;20227;-80
2022/07/15 01:07:24;;;;;;;3.47;1.97;;;;;;;;;;5027560;28;20210;-81
2022/07/15 01:09:52;;;;;;;12.87;2.73;;;;;;;;;;5025037;28;20295;-80
2022/07/15 01:12:20;;;;;;;5.70;2.00;;;;;;;;;;5027097;28;20192;-81
2022/07/15 01:15:10;;;;;;;4.90;2.13;;;;;;;;;;5045522;28;20279;-80
2022/07/15 01:17:38;;;;;;;4.13;1.97;;;;;;;;;;5030798;28;20601;-81
2022/07/15 01:20:07;;;;;;;4.03;2.10;;;;;;;;;;5020849;28;20208;-81
2022/07/15 01:22:35;;;;;;;5.67;2.33;;;;;;;;;;5026651;28;20207;-81
2022/07/15 01:25:03;;;;;;;2.77;2.10;;;;;;;;;;5027439;28;20258;-81
2022/07/15 01:27:32;;;;;;;5.17;2.43;;;;;;;;;;5028583;28;20239;-80
2022/07/15 01:30:00;;;;;;;3.67;2.30;;;;;;;;;;5031703;28;20204;-80
2022/07/15 01:32:30;;;;;;;9.80;2.60;;;;;;;;;;5035366;28;20644;-81
2022/07/15 01:34:57;;;;;;;3.80;2.23;;;;;;;;;;5025740;28;20219;-81
2022/07/15 01:37:25;;;;;;;3.27;2.33;;;;;;;;;;5027631;28;20811;-82
2022/07/15 01:39:56;;;;;;;5.50;2.30;;;;;;;;;;5022843;28;20192;-81
2022/07/15 01:42:23;;;;;;;7.30;2.30;;;;;;;;;;5025130;28;20196;-81
2022/07/15 01:44:52;;;;;;;5.97;2.40;;;;;;;;;;5022093;28;20220;-81
2022/07/15 01:47:19;;;;;;;3.80;2.20;;;;;;;;;;5022298;28;20238;-80
2022/07/15 01:49:45;;;;;;;4.23;2.20;;;;;;;;;;5024261;28;20200;-81
2022/07/15 01:52:12;;;;;;;5.33;2.00;;;;;;;;;;5027949;28;20253;-82
2022/07/15 01:54:43;;;;;;;4.37;2.53;;;;;;;;;;5026254;28;20223;-81
2022/07/15 01:57:22;;;;;;;5.93;2.27;;;;;;;;;;5026942;28;20232;-81
2022/07/15 01:59:50;;;;;;;6.03;2.40;;;;;;;;;;5022481;28;20876;-81
2022/07/15 02:02:18;;;;;;;5.97;2.50;;;;;;;;;;5020550;28;20307;-80
2022/07/15 02:04:45;;;;;;;4.80;2.20;;;;;;;;;;5025395;28;20299;-81
2022/07/15 02:07:12;;;;;;;4.50;2.37;;;;;;;;;;5026033;28;20208;-81
2022/07/15 02:09:39;;;;;;;4.70;1.90;;;;;;;;;;5025617;28;20208;-80
2022/07/15 02:12:07;;;;;;;7.27;2.73;;;;;;;;;;5029022;28;20655;-80
2022/07/15 02:14:36;;;;;;;5.07;2.30;;;;;;;;;;5021319;28;20220;-80
2022/07/15 02:17:04;;;;;;;4.37;2.17;;;;;;;;;;5024080;28;20204;-81
2022/07/15 02:19:31;;;;;;;7.17;2.63;;;;;;;;;;5024506;28;20254;-80
2022/07/15 02:21:59;;;;;;;3.37;2.30;;;;;;;;;;5026878;28;20210;-80
2022/07/15 02:24:26;;;;;;;3.33;2.03;;;;;;;;;;5027221;28;20223;-80
2022/07/15 02:26:53;;;;;;;3.23;2.20;;;;;;;;;;5026587;28;20235;-80
2022/07/15 02:29:21;;;;;;;6.20;2.20;;;;;;;;;;5021929;28;20244;-81
2022/07/15 02:31:51;;;;;;;5.77;2.47;;;;;;;;;;5022153;28;20286;-81
2022/07/15 02:34:18;;;;;;;3.33;2.43;;;;;;;;;;5027730;28;20323;-82
2022/07/15 02:36:45;;;;;;;6.07;2.53;;;;;;;;;;5032827;28;20204;-81
2022/07/15 02:39:12;;;;;;;4.40;2.50;;;;;;;;;;5030858;28;20247;-81
2022/07/15 02:41:39;;;;;;;7.97;2.40;;;;;;;;;;5032221;28;20298;-81
2022/07/15 02:44:07;;;;;;;3.67;2.23;;;;;;;;;;5030865;28;20242;-82
2022/07/15 02:46:36;;;;;;;6.70;2.53;;;;;;;;;;5031114;28;20258;-81
2022/07/15 02:49:05;;;;;;;8.70;2.50;;;;;;;;;;5028173;28;20201;-82
2022/07/15 02:51:33;;;;;;;4.57;2.20;;;;;;;;;;5029146;28;20207;-81
2022/07/15 02:54:00;;;;;;;5.30;2.33;;;;;;;;;;5034859;28;20243;-81
2022/07/15 02:56:27;;;;;;;6.17;2.43;;;;;;;;;;5031193;28;20204;-81
2022/07/15 02:58:55;;;;;;;3.37;2.40;;;;;;;;;;5032811;28;20308;-81
2022/07/15 03:01:22;;;;;;;4.43;2.20;;;;;;;;;;5032073;28;20570;-81
2022/07/15 03:03:50;;;;;;;4.77;2.60;;;;;;;;;;5027421;28;20613;-81
2022/07/15 03:06:19;;;;;;;5.07;2.27;;;;;;;;;;5030594;28;20625;-81
2022/07/15 03:08:47;;;;;;;3.90;2.30;;;;;;;;;;5031234;28;20196;-82
2022/07/15 03:11:14;;;;;;;4.93;2.57;;;;;;;;;;5032962;28;20210;-81
2022/07/15 03:13:41;;;;;;;4.27;2.50;;;;;;;;;;5032354;28;20310;-82
2022/07/15 03:16:09;;;;;;;4.13;2.33;;;;;;;;;;5030296;28;20686;-80
2022/07/15 03:18:36;;;;;;;6.00;2.53;;;;;;;;;;5026789;28;20254;-81
2022/07/15 03:21:04;;;;;;;3.70;2.17;;;;;;;;;;5024772;28;20214;-81
2022/07/15 03:23:32;;;;;;;6.57;2.77;;;;;;;;;;5029766;28;20290;-81
2022/07/15 03:26:00;;;;;;;6.93;2.60;;;;;;;;;;5032034;28;20227;-80
2022/07/15 03:28:30;;;;;;;6.93;2.53;;;;;;;;;;5030930;28;20282;-81
2022/07/15 03:30:57;;;;;;;8.70;2.70;;;;;;;;;;5029142;28;20620;-80
2022/07/15 03:33:24;;;;;;;4.67;2.60;;;;;;;;;;5031795;28;20211;-81
2022/07/15 03:35:51;;;;;;;6.57;2.60;;;;;;;;;;5032088;28;20267;-80
2022/07/15 03:38:19;;;;;;;6.40;2.53;;;;;;;;;;5028804;28;20311;-81
2022/07/15 03:40:47;;;;;;;5.17;2.73;;;;;;;;;;5027906;28;20582;-81
2022/07/15 03:43:14;;;;;;;5.83;2.80;;;;;;;;;;5028703;28;20665;-81
2022/07/15 03:45:42;;;;;;;5.50;3.03;;;;;;;;;;5025896;28;20287;-81
2022/07/15 03:48:09;;;;;;;5.23;3.20;;;;;;;;;;5024544;28;20208;-81
2022/07/15 03:50:36;;;;;;;8.87;2.93;;;;;;;;;;5027047;28;20279;-81
2022/07/15 03:53:03;;;;;;;13.43;3.20;;;;;;;;;;5030077;28;20212;-81
2022/07/15 03:55:31;;;;;;;6.33;3.13;;;;;;;;;;5031769;28;20196;-81
2022/07/15 03:58:00;;;;;;;7.90;2.87;;;;;;;;;;5043157;28;20203;-80
2022/07/15 04:00:27;;;;;;;9.47;3.37;;;;;;;;;;5056967;28;20180;-80
2022/07/15 04:02:54;;;;;;;4.93;2.80;;;;;;;;;;5060629;22;20293;-80
2022/07/15 04:05:22;;;;;;;9.87;2.80;;;;;;;;;;5027868;28;20196;-80
2022/07/15 04:07:49;;;;;;;12.13;3.10;;;;;;;;;;5026698;28;20675;-81
2022/07/15 04:10:16;;;;;;;6.10;2.70;;;;;;;;;;5027489;28;20570;-80
2022/07/15 04:12:44;;;;;;;5.53;2.97;;;;;;;;;;5017048;28;20688;-80
2022/07/15 04:15:14;;;;;;;4.00;2.57;;;;;;;;;;5012883;28;20258;-80
2022/07/15 04:17:41;;;;;;;5.13;2.80;;;;;;;;;;5016096;28;20204;-80
2022/07/15 04:20:09;;;;;;;6.13;2.70;;;;;;;;;;5012112;28;20214;-80
2022/07/15 04:22:40;;;;;;;7.43;2.53;;;;;;;;;;5012395;28;20250;-81
2022/07/15 04:25:08;;;;;;;5.97;2.70;;;;;;;;;;5010441;28;20209;-80
2022/07/15 04:27:35;;;;;;;10.97;2.90;;;;;;;;;;5012278;28;20267;-80
2022/07/15 04:30:02;;;;;;;5.40;2.43;;;;;;;;;;5012477;28;20267;-79
2022/07/15 04:32:31;;;;;;;9.20;2.60;;;;;;;;;;5011476;28;20224;-80
2022/07/15 04:34:58;;;;;;;5.40;2.60;;;;;;;;;;5009553;28;20274;-80
2022/07/15 04:37:25;;;;;;;8.67;2.73;;;;;;;;;;5009310;28;20676;-79
2022/07/15 04:39:52;;;;;;;4.67;2.93;;;;;;;;;;5007263;28;20251;-81
2022/07/15 04:42:19;;;;;;;6.03;2.60;;;;;;;;;;5014802;28;20314;-81
2022/07/15 04:44:47;;;;;;;8.37;2.30;;;;;;;;;;5007105;28;20291;-80
2022/07/15 04:47:14;;;;;;;5.60;2.53;;;;;;;;;;5010853;28;20299;-81
2022/07/15 04:52:27;;;;;;;6.70;3.07;;;;;;;;;;5010916;28;20235;-80
2022/07/15 04:54:54;;;;;;;7.67;2.90;;;;;;;;;;5007162;28;20291;-80
2022/07/15 04:57:21;;;;;;;8.53;2.87;;;;;;;;;;5008899;28;20219;-80
2022/07/15 04:59:49;;;;;;;7.57;2.97;;;;;;;;;;5006144;28;20375;-80
2022/07/15 05:02:16;;;;;;;7.30;2.93;;;;;;;;;;5008996;28;20268;-80
2022/07/15 05:04:44;;;;;;;13.10;3.00;;;;;;;;;;5013614;28;20331;-80
2022/07/15 05:07:12;;;;;;;10.23;3.17;;;;;;;;;;5016946;28;20236;-80
2022/07/15 05:09:39;;;;;;;4.80;3.03;;;;;;;;;;5015353;28;20205;-80
2022/07/15 05:12:07;;;;;;;9.07;2.73;;;;;;;;;;5010230;28;20225;-81
2022/07/15 05:14:34;;;;;;;7.90;2.83;;;;;;;;;;5009654;28;20416;-81
2022/07/15 05:17:01;;;;;;;9.23;2.87;;;;;;;;;;5010741;28;20247;-80
2022/07/15 05:19:28;;;;;;;7.13;2.83;;;;;;;;;;5010895;28;20292;-81
2022/07/15 05:21:57;;;;;;;9.57;2.97;;;;;;;;;;5009188;28;20300;-78
2022/07/15 05:24:24;;;;;;;13.60;3.23;;;;;;;;;;5008515;28;20271;-79
2022/07/15 05:26:51;;;;;;;6.70;2.80;;;;;;;;;;5010286;28;20272;-79
2022/07/15 05:29:21;;;;;;;6.17;3.00;;;;;;;;;;5007663;28;20201;-79
2022/07/15 05:31:49;;;;;;;8.10;2.97;;;;;;;;;;5007762;28;20233;-80
2022/07/15 05:34:16;;;;;;;6.30;2.90;;;;;;;;;;5005959;28;20292;-79
2022/07/15 05:36:43;;;;;;;9.17;3.30;;;;;;;;;;5006841;28;20320;-80
2022/07/15 05:39:12;;;;;;;5.33;2.90;;;;;;;;;;5007954;28;20224;-79
2022/07/15 05:41:39;;;;;;;9.17;2.87;;;;;;;;;;5011393;28;20295;-80
2022/07/15 05:44:07;;;;;;;13.97;3.00;;;;;;;;;;5011500;28;20287;-79
2022/07/15 05:46:34;;;;;;;6.83;3.27;;;;;;;;;;5017354;28;20203;-80
2022/07/15 05:49:01;;;;;;;7.03;2.80;;;;;;;;;;5016353;28;20209;-79
2022/07/15 05:51:29;;;;;;;11.23;3.30;;;;;;;;;;5013084;28;20583;-80
2022/07/15 05:53:56;;;;;;;6.03;2.80;;;;;;;;;;5015761;28;20569;-80
2022/07/15 05:56:25;;;;;;;6.80;2.67;;;;;;;;;;5014602;28;20216;-79
2022/07/15 05:58:52;;;;;;;9.43;2.90;;;;;;;;;;5015659;28;20745;-79
2022/07/15 06:01:21;;;;;;;9.23;3.03;;;;;;;;;;5017308;28;20271;-79
2022/07/15 06:03:48;;;;;;;9.30;2.70;;;;;;;;;;5015390;28;20204;-79
2022/07/15 06:06:16;;;;;;;5.63;2.60;;;;;;;;;;5017318;28;20212;-79
2022/07/15 06:08:44;;;;;;;4.77;2.20;;;;;;;;;;5017230;28;20209;-79
2022/07/15 06:11:11;;;;;;;6.63;2.53;;;;;;;;;;5021826;28;20204;-79
2022/07/15 06:13:40;;;;;;;4.63;2.30;;;;;;;;;;5019815;28;20234;-79
2022/07/15 06:16:08;;;;;;;9.33;3.10;;;;;;;;;;5018941;28;20269;-80
2022/07/15 06:18:35;;;;;;;10.60;2.30;;;;;;;;;;5016289;28;20215;-81
2022/07/15 06:21:03;;;;;;;5.77;2.20;;;;;;;;;;5021048;28;20208;-80
2022/07/15 06:23:30;;;;;;;5.03;3.03;;;;;;;;;;5015659;28;20239;-80
2022/07/15 06:25:57;;;;;;;11.00;2.87;;;;;;;;;;5021463;28;20267;-80
2022/07/15 06:28:24;;;;;;;6.00;2.60;;;;;;;;;;5015464;28;20331;-81
2022/07/15 06:30:53;;;;;;;7.30;3.00;;;;;;;;;;5018300;28;20283;-81
2022/07/15 06:33:21;;;;;;;10.57;2.63;;;;;;;;;;5015277;28;20232;-80
2022/07/15 06:35:48;;;;;;;9.37;3.03;;;;;;;;;;5015331;28;20607;-80
2022/07/15 06:38:15;;;;;;;5.47;2.80;;;;;;;;;;5015793;28;20727;-80
2022/07/15 06:40:42;;;;;;;7.17;2.60;;;;;;;;;;5012677;28;20224;-80
2022/07/15 06:43:10;;;;;;;9.73;2.73;;;;;;;;;;5011552;28;20256;-80
2022/07/15 06:45:38;;;;;;;11.07;3.33;;;;;;;;;;5015165;28;20204;-80
2022/07/15 06:48:07;;;;;;;8.80;2.40;;;;;;;;;;5013833;28;20521;-81
2022/07/15 06:50:34;;;;;;;5.77;2.47;;;;;;;;;;5012595;28;20200;-80
2022/07/15 06:53:01;;;;;;;7.90;2.57;;;;;;;;;;5014289;28;20236;-81
2022/07/15 06:55:30;;;;;;;12.03;2.60;;;;;;;;;;5011326;28;20271;-80
2022/07/15 06:57:57;;;;;;;6.40;2.17;;;;;;;;;;5007803;28;20228;-81
2022/07/15 07:00:24;;;;;;;10.97;2.50;;;;;;;;;;5014591;28;20303;-82
2022/07/15 07:02:52;;;;;;;8.70;2.63;;;;;;;;;;5013567;28;20248;-83
2022/07/15 07:05:20;;;;;;;10.87;2.10;;;;;;;;;;5016687;28;20241;-82
2022/07/15 07:07:47;;;;;;;6.40;2.00;;;;;;;;;;5015386;28;20216;-83
2022/07/15 07:10:15;;;;;;;5.50;2.07;;;;;;;;;;5016900;28;20214;-82
2022/07/15 07:12:42;;;;;;;7.33;1.70;;;;;;;;;;5014703;28;20362;-82
2022/07/15 07:15:09;;;;;;;5.37;1.77;;;;;;;;;;5011603;28;21414;-82
2022/07/15 07:17:36;;;;;;;6.47;1.80;;;;;;;;;;5014850;28;20736;-80
2022/07/15 07:20:04;;;;;;;6.90;2.00;;;;;;;;;;5015432;28;20755;-80
2022/07/15 07:22:32;;;;;;;5.70;1.87;;;;;;;;;;5010216;28;20228;-79
2022/07/15 07:25:00;;;;;;;5.77;1.57;;;;;;;;;;5013295;28;20236;-81
2022/07/15 07:27:27;;;;;;;7.63;1.93;;;;;;;;;;5014727;28;20201;-82
2022/07/15 07:29:54;;;;;;;6.23;1.77;;;;;;;;;;5014138;28;20196;-82
2022/07/15 07:32:22;;;;;;;4.33;1.43;;;;;;;;;;5015256;28;20294;-80
2022/07/15 07:34:49;;;;;;;3.83;1.10;;;;;;;;;;5014400;28;20200;-81
2022/07/15 07:37:16;;;;;;;2.73;1.40;;;;;;;;;;5017260;28;20211;-80
2022/07/15 07:39:45;;;;;;;7.83;1.60;;;;;;;;;;5016686;28;20294;-81
2022/07/15 07:42:13;;;;;;;4.33;1.57;;;;;;;;;;5013527;28;20320;-80
2022/07/15 07:44:40;;;;;;;4.53;1.93;;;;;;;;;;5008150;28;20669;-80
2022/07/15 07:47:07;;;;;;;7.80;1.80;;;;;;;;;;5012606;28;20236;-82
2022/07/15 07:49:34;;;;;;;4.57;1.43;;;;;;;;;;5011805;28;20234;-81
2022/07/15 07:52:02;;;;;;;5.83;1.63;;;;;;;;;;5013713;28;20242;-82
2022/07/15 07:54:29;;;;;;;5.43;1.80;;;;;;;;;;5013466;28;20232;-81
2022/07/15 07:56:58;;;;;;;3.20;1.30;;;;;;;;;;5014907;28;20215;-80
2022/07/15 07:59:25;;;;;;;5.70;1.70;;;;;;;;;;5012662;28;20229;-82
2022/07/15 08:01:52;;;;;;;4.90;1.67;;;;;;;;;;5015353;28;20298;-80
2022/07/15 08:04:19;;;;;;;5.73;1.40;;;;;;;;;;5014375;28;20207;-82
2022/07/15 08:06:47;;;;;;;3.53;1.13;;;;;;;;;;5014424;28;20200;-81
2022/07/15 08:09:14;;;;;;;3.63;1.23;;;;;;;;;;5009419;28;20210;-81
2022/07/15 08:11:42;;;;;;;7.00;1.23;;;;;;;;;;5010144;28;20599;-82
2022/07/15 08:14:11;;;;;;;3.10;1.30;;;;;;;;;;5012290;28;20205;-81
2022/07/15 08:16:42;;;;;;;3.57;1.30;;;;;;;;;;5014064;28;20296;-81
2022/07/15 08:19:09;;;;;;;6.13;1.53;;;;;;;;;;5016309;28;20205;-80
2022/07/15 08:21:36;;;;;;;7.67;1.60;;;;;;;;;;5017745;28;20244;-80
2022/07/15 08:24:03;;;;;;;4.70;1.47;;;;;;;;;;5014323;28;20749;-81
2022/07/15 08:26:31;;;;;;;5.43;1.60;;;;;;;;;;5011436;28;20279;-82
2022/07/15 08:28:58;;;;;;;6.33;1.43;;;;;;;;;;5009522;28;20224;-79
2022/07/15 08:31:26;;;;;;;7.20;1.70;;;;;;;;;;5011759;28;20263;-79
2022/07/15 08:33:53;;;;;;;5.87;1.50;;;;;;;;;;5006913;28;20235;-80
2022/07/15 08:36:21;;;;;;;3.23;1.70;;;;;;;;;;5006970;28;20298;-78
2022/07/15 08:38:48;;;;;;;6.50;2.10;;;;;;;;;;5009789;28;20204;-79
2022/07/15 08:41:16;;;;;;;5.17;1.70;;;;;;;;;;5008289;28;20227;-78
2022/07/15 08:43:43;;;;;;;6.40;1.47;;;;;;;;;;5010131;28;20204;-80
2022/07/15 08:46:10;;;;;;;5.40;1.33;;;;;;;;;;5011086;28;20291;-79
2022/07/15 08:48:39;;;;;;;3.10;1.10;;;;;;;;;;5009400;28;20248;-79
2022/07/15 08:51:08;;;;;;;3.47;1.00;;;;;;;;;;5011725;28;20197;-80
2022/07/15 08:53:35;;;;;;;3.90;1.13;;;;;;;;;;5011243;28;20240;-80
2022/07/15 08:56:03;;;;;;;3.63;1.30;;;;;;;;;;5014013;28;20618;-81
2022/07/15 08:58:31;;;;;;;4.17;1.30;;;;;;;;;;5008899;28;20215;-80
2022/07/15 09:00:58;;;;;;;3.40;1.33;;;;;;;;;;5009003;28;20764;-81
2022/07/15 09:03:26;;;;;;;4.10;1.30;;;;;;;;;;5011058;28;20228;-81
2022/07/15 09:05:54;;;;;;;3.87;1.20;;;;;;;;;;5008673;28;20308;-80
2022/07/15 09:08:22;;;;;;;3.07;1.27;;;;;;;;;;5012160;28;20208;-81
2022/07/15 09:10:51;;;;;;;5.87;1.40;;;;;;;;;;5009936;28;20279;-81
2022/07/15 09:13:30;;;;;;;4.43;1.10;;;;;;;;;;5009483;28;20564;-81
2022/07/15 09:15:58;;;;;;;5.93;1.40;;;;;;;;;;5010813;28;20204;-81
2022/07/15 09:18:26;;;;;;;4.97;1.27;;;;;;;;;;5005757;28;20292;-81
2022/07/15 09:20:54;;;;;;;3.13;1.10;;;;;;;;;;5009190;28;20314;-82
2022/07/15 09:23:29;;;;;;;8.37;1.67;;;;;;;;;;5009718;28;20312;-81
2022/07/15 09:25:56;;;;;;;5.57;1.20;;;;;;;;;;5012068;28;20208;-81
2022/07/15 09:28:36;;;;;;;3.80;1.30;;;;;;;;;;5017079;28;20237;-82
2022/07/15 09:33:51;;;;;;;2.97;1.00;;;;;;;;;;5005467;28;20266;-80
2022/07/15 09:36:21;;;;;;;4.30;1.10;;;;;;;;;;5009472;28;20201;-80
2022/07/15 09:38:50;;;;;;;4.63;1.10;;;;;;;;;;5003262;28;20207;-79
2022/07/15 09:41:33;;;;;;;2.73;1.00;;;;;;;;;;5011179;28;20734;-80
2022/07/15 09:44:02;;;;;;;3.90;1.00;;;;;;;;;;5002302;28;20200;-80
2022/07/15 09:46:30;;;;;;;6.33;1.03;;;;;;;;;;5007571;28;20299;-80
2022/07/15 09:48:57;;;;;;;2.77;1.10;;;;;;;;;;5011173;28;20211;-79
2022/07/15 09:51:26;;;;;;;4.27;1.20;;;;;;;;;;5018156;28;20227;-80
2022/07/15 09:53:53;;;;;;;2.93;1.00;;;;;;;;;;5013053;28;20294;-79
2022/07/15 09:56:26;;;;;;;5.07;1.20;;;;;;;;;;5020752;28;20238;-80
2022/07/15 09:58:53;;;;;;;2.37;1.00;;;;;;;;;;5009946;28;20339;-79
2022/07/15 10:01:20;;;;;;;2.27;0.90;;;;;;;;;;5016310;28;20255;-80
2022/07/15 10:03:48;;;;;;;5.07;1.37;;;;;;;;;;5040910;22;20238;-80
2022/07/15 10:06:16;;;;;;;4.13;1.33;;;;;;;;;;5031741;28;20286;-79
2022/07/15 10:08:48;;;;;;;4.67;1.40;;;;;;;;;;5027424;28;20208;-80
2022/07/15 10:11:16;;;;;;;3.10;1.07;;;;;;;;;;5032439;28;20932;-80
2022/07/15 10:14:04;;;;;;;4.87;1.17;;;;;;;;;;5014194;28;20248;-80
2022/07/15 10:16:42;;;;;;;3.90;0.90;;;;;;;;;;4975687;28;20676;-80
2022/07/15 10:19:13;;;;;;;5.83;1.17;;;;;;;;;;5007128;28;20283;-81
2022/07/15 10:21:46;;;;;;;4.57;1.60;;;;;;;;;;5017846;28;20307;-81
2022/07/15 10:24:33;;;;;;;3.83;1.40;;;;;;;;;;5016226;28;20208;-80
2022/07/15 10:27:07;;;;;;;6.37;1.40;;;;;;;;;;5018917;28;20201;-81
2022/07/15 10:29:34;;;;;;;3.23;1.33;;;;;;;;;;5013396;28;20212;-81
2022/07/15 10:32:02;;;;;;;5.30;1.50;;;;;;;;;;5018268;28;20760;-81
2022/07/15 10:34:33;;;;;;;3.07;1.20;;;;;;;;;;5015018;28;20253;-81
2022/07/15 10:37:02;;;;;;;4.27;1.30;;;;;;;;;;5018839;28;20241;-81
2022/07/15 10:39:49;;;;;;;3.20;1.37;;;;;;;;;;5021019;28;20656;-81
2022/07/15 10:42:42;;;;;;;2.90;1.40;;;;;;;;;;5020595;28;20282;-81
2022/07/15 10:45:13;;;;;;;7.00;1.33;;;;;;;;;;5015478;28;20304;-81
2022/07/15 10:47:40;;;;;;;1.63;1.13;;;;;;;;;;5018795;28;20215;-80
2022/07/15 10:50:26;;;;;;;4.47;1.30;;;;;;;;;;5019552;28;20208;-82
2022/07/15 10:53:15;;;;;;;2.60;1.27;;;;;;;;;;5018146;28;20281;-82
2022/07/15 10:58:32;;;;;;;3.97;1.27;;;;;;;;;;4978077;28;20271;-83
2022/07/15 11:01:14;;;;;;;5.17;1.40;;;;;;;;;;5017785;28;20232;-83
2022/07/15 11:04:13;;;;;;;4.77;1.23;;;;;;;;;;5019014;28;20228;-81
2022/07/15 11:06:55;;;;;;;5.03;1.50;;;;;;;;;;5011468;28;20216;-81
2022/07/15 11:09:42;;;;;;;4.73;1.40;;;;;;;;;;5018009;28;20676;-81
2022/07/15 11:12:11;;;;;;;1.80;1.10;;;;;;;;;;5014811;28;20228;-82
2022/07/15 11:14:45;;;;;;;5.73;1.37;;;;;;;;;;5016643;28;20279;-83
2022/07/15 11:17:16;;;;;;;6.03;1.47;;;;;;;;;;5007148;28;20327;-81
2022/07/15 11:19:44;;;;;;;4.57;1.30;;;;;;;;;;5009465;28;20208;-82
2022/07/15 11:22:11;;;;;;;4.07;1.53;;;;;;;;;;5012418;28;20240;-82
2022/07/15 11:24:38;;;;;;;3.50;1.40;;;;;;;;;;5014347;28;21069;-82
2022/07/15 11:27:06;;;;;;;2.80;1.23;;;;;;;;;;5017228;28;20295;-82
2022/07/15 11:29:47;;;;;;;6.60;1.30;;;;;;;;;;5009097;28;20217;-83
2022/07/15 11:32:16;;;;;;;3.87;1.33;;;;;;;;;;5016405;28;20228;-82
2022/07/15 11:34:44;;;;;;;6.33;1.50;;;;;;;;;;5017201;28;20201;-82
2022/07/15 11:37:12;;;;;;;2.70;1.37;;;;;;;;;;5015812;28;20250;-82
2022/07/15 11:39:40;;;;;;;5.03;1.50;;;;;;;;;;5021859;28;20200;-82
2022/07/15 11:44:52;;;;;;;2.73;1.40;;;;;;;;;;5032942;28;20215;-82
2022/07/15 11:47:22;;;;;;;2.30;1.37;;;;;;;;;;5029481;28;20208;-83
2022/07/15 11:49:50;;;;;;;2.17;1.40;;;;;;;;;;5010710;28;20211;-82
2022/07/15 11:52:24;;;;;;;6.93;1.80;;;;;;;;;;5013029;28;20232;-82
2022/07/15 11:54:52;;;;;;;5.37;1.03;;;;;;;;;;5011492;28;20675;-82
2022/07/15 11:57:21;;;;;;;5.87;1.13;;;;;;;;;;5020190;28;20206;-82
2022/07/15 11:59:55;;;;;;;3.70;1.10;;;;;;;;;;5018966;28;20275;-83
2022/07/15 12:02:26;;;;;;;4.57;1.33;;;;;;;;;;5012652;28;20263;-82
2022/07/15 12:05:02;;;;;;;4.47;1.10;;;;;;;;;;5007471;28;20215;-82
2022/07/15 12:07:40;;;;;;;3.13;0.93;;;;;;;;;;5009383;28;20215;-82
2022/07/15 12:10:08;;;;;;;6.83;1.37;;;;;;;;;;5007549;28;20220;-81
2022/07/15 12:12:35;;;;;;;4.00;1.10;;;;;;;;;;5009846;28;20303;-81
2022/07/15 12:15:02;;;;;;;4.40;1.20;;;;;;;;;;5017445;28;20215;-80
2022/07/15 12:17:31;;;;;;;3.23;1.00;;;;;;;;;;5022896;28;20203;-81
2022/07/15 12:20:06;;;;;;;4.23;1.00;;;;;;;;;;5018898;28;20197;-81
2022/07/15 12:22:37;;;;;;;5.23;1.10;;;;;;;;;;5021838;28;20259;-82
2022/07/15 12:25:07;;;;;;;2.13;1.10;;;;;;;;;;5007073;28;20216;-81
2022/07/15 12:27:35;;;;;;;3.73;0.87;;;;;;;;;;5013109;28;20296;-81
2022/07/15 12:30:02;;;;;;;3.63;1.10;;;;;;;;;;5012825;28;20239;-82
2022/07/15 12:32:31;;;;;;;2.13;1.00;;;;;;;;;;5015618;28;20227;-81
2022/07/15 12:34:59;;;;;;;3.97;1.10;;;;;;;;;;5018585;28;20216;-82
2022/07/15 12:37:30;;;;;;;4.67;1.03;;;;;;;;;;5014539;28;20244;-81
2022/07/15 12:40:01;;;;;;;4.13;0.87;;;;;;;;;;5014056;28;20223;-82
2022/07/15 12:42:30;;;;;;;7.93;1.17;;;;;;;;;;5017060;28;20247;-80
2022/07/15 12:48:26;;;;;;;3.50;1.10;;;;;;;;;;5008446;28;20287;-80
2022/07/15 12:51:00;;;;;;;5.83;1.03;;;;;;;;;;4994723;28;20268;-80
2022/07/15 12:53:28;;;;;;;2.00;0.70;;;;;;;;;;5008873;28;20227;-81
2022/07/15 12:56:01;;;;;;;4.77;0.80;;;;;;;;;;5015666;28;20243;-80
2022/07/15 12:58:30;;;;;;;5.17;0.83;;;;;;;;;;5012435;28;20216;-80
2022/07/15 13:03:58;;;;;;;3.27;0.83;;;;;;;;;;5000121;28;20231;-80
2022/07/15 13:06:27;;;;;;;3.23;0.70;;;;;;;;;;5018003;28;20664;-81
2022/07/15 13:08:54;;;;;;;2.80;0.80;;;;;;;;;;5019298;28;20215;-81
2022/07/15 13:11:22;;;;;;;3.77;0.90;;;;;;;;;;5013379;28;20702;-80
2022/07/15 13:13:49;;;;;;;3.00;1.10;;;;;;;;;;5015188;28;20228;-80
2022/07/15 13:16:16;;;;;;;2.60;0.80;;;;;;;;;;5016302;28;20261;-79
2022/07/15 13:18:43;;;;;;;3.60;0.90;;;;;;;;;;5009989;28;20209;-81
2022/07/15 13:21:12;;;;;;;2.97;0.80;;;;;;;;;;5012266;28;20282;-80
2022/07/15 13:23:42;;;;;;;2.43;0.80;;;;;;;;;;5009610;28;20227;-80
2022/07/15 13:26:12;;;;;;;4.63;1.27;;;;;;;;;;5010591;28;20257;-80
2022/07/15 13:28:39;;;;;;;5.53;0.83;;;;;;;;;;5010214;28;20250;-81
2022/07/15 13:31:07;;;;;;;2.77;0.73;;;;;;;;;;5017085;28;20226;-80
2022/07/15 13:33:34;;;;;;;4.47;1.00;;;;;;;;;;5012962;28;20220;-80
2022/07/15 13:36:03;;;;;;;4.97;1.00;;;;;;;;;;5017476;28;20296;-82
2022/07/15 13:38:32;;;;;;;1.97;0.70;;;;;;;;;;5011636;28;20204;-82
2022/07/15 13:40:59;;;;;;;4.33;0.83;;;;;;;;;;5010142;28;20220;-83
2022/07/15 13:43:26;;;;;;;4.17;1.27;;;;;;;;;;5013649;28;20785;-82
2022/07/15 13:46:10;;;;;;;2.63;0.80;;;;;;;;;;5021668;28;20196;-82
2022/07/15 13:48:38;;;;;;;3.57;1.00;;;;;;;;;;5015949;28;20208;-80
2022/07/15 13:53:52;;;;;;;2.27;0.77;;;;;;;;;;5002388;28;20657;-80
2022/07/15 13:56:21;;;;;;;3.27;0.90;;;;;;;;;;5007176;28;20204;-80
2022/07/15 13:58:48;;;;;;;3.07;0.90;;;;;;;;;;5008215;28;20243;-79
2022/07/15 14:01:19;;;;;;;3.50;1.00;;;;;;;;;;5011330;28;20248;-80
2022/07/15 14:03:46;;;;;;;3.03;0.80;;;;;;;;;;5000879;28;20228;-80
2022/07/15 14:06:13;;;;;;;3.30;1.07;;;;;;;;;;5000942;28;20482;-80
2022/07/15 14:08:40;;;;;;;2.87;0.90;;;;;;;;;;5011521;28;20231;-82
2022/07/15 14:11:17;;;;;;;3.83;0.80;;;;;;;;;;5016845;28;20617;-81
2022/07/15 14:13:44;;;;;;;2.57;0.90;;;;;;;;;;5011690;28;20240;-82
2022/07/15 14:16:12;;;;;;;1.60;0.63;;;;;;;;;;5014488;28;20196;-81
2022/07/15 14:18:45;;;;;;;3.10;0.80;;;;;;;;;;5011032;28;20204;-82
2022/07/15 14:21:13;;;;;;;4.77;0.80;;;;;;;;;;5011230;28;20212;-81
2022/07/15 14:23:41;;;;;;;3.53;1.00;;;;;;;;;;5007286;28;20738;-81
2022/07/15 14:26:09;;;;;;;3.63;1.20;;;;;;;;;;5012533;28;20306;-81
2022/07/15 14:28:36;;;;;;;2.97;0.70;;;;;;;;;;5012418;28;20258;-81
2022/07/15 14:31:04;;;;;;;2.50;0.90;;;;;;;;;;5017288;28;20620;-83
2022/07/15 14:33:31;;;;;;;3.27;1.00;;;;;;;;;;5011664;28;20231;-83
2022/07/15 14:35:58;;;;;;;5.50;1.03;;;;;;;;;;5023036;28;20659;-82
2022/07/15 14:38:26;;;;;;;3.60;0.83;;;;;;;;;;5020582;28;20208;-81
2022/07/15 14:40:53;;;;;;;1.87;0.90;;;;;;;;;;5018625;28;20318;-81
2022/07/15 14:43:21;;;;;;;5.97;1.00;;;;;;;;;;5019166;28;20322;-82
2022/07/15 14:45:49;;;;;;;1.80;0.83;;;;;;;;;;5006317;28;20208;-81
2022/07/15 14:48:16;;;;;;;3.30;0.93;;;;;;;;;;5010437;28;20212;-81
2022/07/15 14:50:43;;;;;;;3.73;1.10;;;;;;;;;;5024436;28;20289;-81
2022/07/15 14:53:11;;;;;;;2.57;1.00;;;;;;;;;;5013695;28;20224;-82
2022/07/15 14:55:38;;;;;;;3.33;1.10;;;;;;;;;;5015865;28;20239;-82
2022/07/15 14:58:05;;;;;;;4.03;1.10;;;;;;;;;;5024719;28;20200;-82
2022/07/15 15:00:34;;;;;;;3.37;1.00;;;;;;;;;;5022702;28;20205;-82
2022/07/15 15:03:01;;;;;;;3.00;0.90;;;;;;;;;;5008998;28;20236;-84
2022/07/15 15:05:28;;;;;;;2.90;1.00;;;;;;;;;;5020406;28;20679;-82
2022/07/15 15:07:55;;;;;;;2.20;0.90;;;;;;;;;;5039530;28;20227;-81
2022/07/15 15:10:28;;;;;;;3.93;1.27;;;;;;;;;;5044720;28;20205;-80
2022/07/15 15:12:55;;;;;;;3.70;1.20;;;;;;;;;;5019522;28;20220;-81
2022/07/15 15:15:23;;;;;;;2.03;0.90;;;;;;;;;;5021854;28;20680;-83